sensor_id;sensor_type;location;lat;lon;timestamp;temperature;humidity
48604;DHT22;32708;51.212;6.788;2024-01-30T00:01:26;10.10;90.20
48604;DHT22;32708;51.212;6.788;2024-01-30T00:03:52;10.10;90.30
48604;DHT22;32708;51.212;6.788;2024-01-30T00:06:19;10.10;91.10
48604;DHT22;32708;51.212;6.788;2024-01-30T00:08:49;10.10;91.50
48604;DHT22;32708;51.212;6.788;2024-01-30T00:11:16;10.00;91.40
48604;DHT22;32708;51.212;6.788;2024-01-30T00:13:47;10.00;93.00
48604;DHT22;32708;51.212;6.788;2024-01-30T00:16:21;9.40;94.30
48604;DHT22;32708;51.212;6.788;2024-01-30T00:18:51;10.00;94.40
48604;DHT22;32708;51.212;6.788;2024-01-30T00:21:19;10.00;95.40
48604;DHT22;32708;51.212;6.788;2024-01-30T00:23:46;10.00;94.30
48604;DHT22;32708;51.212;6.788;2024-01-30T00:26:14;9.90;95.50
48604;DHT22;32708;51.212;6.788;2024-01-30T00:28:43;9.90;95.50
48604;DHT22;32708;51.212;6.788;2024-01-30T00:31:10;10.00;94.10
48604;DHT22;32708;51.212;6.788;2024-01-30T00:33:40;9.90;93.40
48604;DHT22;32708;51.212;6.788;2024-01-30T00:36:08;10.00;91.10
48604;DHT22;32708;51.212;6.788;2024-01-30T00:38:36;9.90;91.40
48604;DHT22;32708;51.212;6.788;2024-01-30T00:41:08;9.80;92.50
48604;DHT22;32708;51.212;6.788;2024-01-30T00:43:35;9.80;92.40
48604;DHT22;32708;51.212;6.788;2024-01-30T00:46:02;9.80;95.10
48604;DHT22;32708;51.212;6.788;2024-01-30T00:48:29;9.80;95.70
48604;DHT22;32708;51.212;6.788;2024-01-30T00:50:57;9.80;95.50
48604;DHT22;32708;51.212;6.788;2024-01-30T00:53:23;9.80;97.10
48604;DHT22;32708;51.212;6.788;2024-01-30T00:55:49;10.10;97.50
48604;DHT22;32708;51.212;6.788;2024-01-30T00:58:15;9.70;96.70
48604;DHT22;32708;51.212;6.788;2024-01-30T01:00:42;9.70;96.50
48604;DHT22;32708;51.212;6.788;2024-01-30T01:03:08;9.60;97.00
48604;DHT22;32708;51.212;6.788;2024-01-30T01:05:34;9.70;98.30
48604;DHT22;32708;51.212;6.788;2024-01-30T01:08:00;10.40;99.00
48604;DHT22;32708;51.212;6.788;2024-01-30T01:10:26;9.50;99.90
48604;DHT22;32708;51.212;6.788;2024-01-30T01:12:54;9.60;99.90
48604;DHT22;32708;51.212;6.788;2024-01-30T01:15:20;9.60;99.90
48604;DHT22;32708;51.212;6.788;2024-01-30T01:17:47;9.50;99.90
48604;DHT22;32708;51.212;6.788;2024-01-30T01:20:13;9.60;99.90
48604;DHT22;32708;51.212;6.788;2024-01-30T01:22:40;9.60;99.90
48604;DHT22;32708;51.212;6.788;2024-01-30T01:25:08;9.50;99.90
48604;DHT22;32708;51.212;6.788;2024-01-30T01:27:36;9.50;99.90
48604;DHT22;32708;51.212;6.788;2024-01-30T01:30:09;9.60;99.50
48604;DHT22;32708;51.212;6.788;2024-01-30T01:32:36;9.50;99.90
48604;DHT22;32708;51.212;6.788;2024-01-30T01:35:04;9.50;99.90
48604;DHT22;32708;51.212;6.788;2024-01-30T01:37:33;9.40;99.90
48604;DHT22;32708;51.212;6.788;2024-01-30T01:40:00;9.40;99.90
48604;DHT22;32708;51.212;6.788;2024-01-30T01:42:26;9.40;99.90
48604;DHT22;32708;51.212;6.788;2024-01-30T01:44:52;9.40;99.90
48604;DHT22;32708;51.212;6.788;2024-01-30T01:47:18;9.50;99.90
48604;DHT22;32708;51.212;6.788;2024-01-30T01:49:44;9.40;99.90
48604;DHT22;32708;51.212;6.788;2024-01-30T01:52:11;9.40;99.90
48604;DHT22;32708;51.212;6.788;2024-01-30T01:54:37;9.40;99.90
48604;DHT22;32708;51.212;6.788;2024-01-30T01:57:04;9.50;99.90
48604;DHT22;32708;51.212;6.788;2024-01-30T01:59:30;9.40;99.90
48604;DHT22;32708;51.212;6.788;2024-01-30T02:01:57;9.50;99.90
48604;DHT22;32708;51.212;6.788;2024-01-30T02:04:24;9.50;99.90
48604;DHT22;32708;51.212;6.788;2024-01-30T02:06:50;9.40;99.90
48604;DHT22;32708;51.212;6.788;2024-01-30T02:09:17;9.40;99.90
48604;DHT22;32708;51.212;6.788;2024-01-30T02:11:44;9.30;99.90
48604;DHT22;32708;51.212;6.788;2024-01-30T02:14:11;9.40;99.90
48604;DHT22;32708;51.212;6.788;2024-01-30T02:16:37;9.30;99.90
48604;DHT22;32708;51.212;6.788;2024-01-30T02:19:03;9.40;99.90
48604;DHT22;32708;51.212;6.788;2024-01-30T02:21:33;9.40;99.90
48604;DHT22;32708;51.212;6.788;2024-01-30T02:24:00;9.30;99.90
48604;DHT22;32708;51.212;6.788;2024-01-30T02:26:28;9.40;99.90
48604;DHT22;32708;51.212;6.788;2024-01-30T02:28:54;9.30;99.90
48604;DHT22;32708;51.212;6.788;2024-01-30T02:31:20;9.50;99.90
48604;DHT22;32708;51.212;6.788;2024-01-30T02:33:46;9.30;99.90
48604;DHT22;32708;51.212;6.788;2024-01-30T02:36:13;9.30;99.90
48604;DHT22;32708;51.212;6.788;2024-01-30T02:38:41;9.30;99.90
48604;DHT22;32708;51.212;6.788;2024-01-30T02:41:07;9.30;99.90
48604;DHT22;32708;51.212;6.788;2024-01-30T02:43:33;9.30;99.90
48604;DHT22;32708;51.212;6.788;2024-01-30T02:46:00;9.40;99.90
48604;DHT22;32708;51.212;6.788;2024-01-30T02:48:26;9.30;99.90
48604;DHT22;32708;51.212;6.788;2024-01-30T02:50:53;9.30;99.90
48604;DHT22;32708;51.212;6.788;2024-01-30T02:53:19;9.40;99.90
48604;DHT22;32708;51.212;6.788;2024-01-30T02:55:45;9.30;99.90
48604;DHT22;32708;51.212;6.788;2024-01-30T02:58:11;9.40;99.90
48604;DHT22;32708;51.212;6.788;2024-01-30T03:00:37;9.50;99.90
48604;DHT22;32708;51.212;6.788;2024-01-30T03:03:04;9.40;99.90
48604;DHT22;32708;51.212;6.788;2024-01-30T03:05:30;9.40;99.90
48604;DHT22;32708;51.212;6.788;2024-01-30T03:07:56;9.40;99.90
48604;DHT22;32708;51.212;6.788;2024-01-30T03:10:22;9.40;99.90
48604;DHT22;32708;51.212;6.788;2024-01-30T03:12:49;9.40;99.90
48604;DHT22;32708;51.212;6.788;2024-01-30T03:15:15;9.40;99.90
48604;DHT22;32708;51.212;6.788;2024-01-30T03:17:41;9.40;99.90
48604;DHT22;32708;51.212;6.788;2024-01-30T03:20:08;9.40;99.90
48604;DHT22;32708;51.212;6.788;2024-01-30T03:22:35;9.40;99.90
48604;DHT22;32708;51.212;6.788;2024-01-30T03:25:01;9.50;99.90
48604;DHT22;32708;51.212;6.788;2024-01-30T03:27:28;9.40;99.90
48604;DHT22;32708;51.212;6.788;2024-01-30T03:29:54;9.50;99.90
48604;DHT22;32708;51.212;6.788;2024-01-30T03:32:21;9.50;99.90
48604;DHT22;32708;51.212;6.788;2024-01-30T03:34:47;9.50;99.90
48604;DHT22;32708;51.212;6.788;2024-01-30T03:37:14;9.50;99.90
48604;DHT22;32708;51.212;6.788;2024-01-30T03:39:40;9.50;99.90
48604;DHT22;32708;51.212;6.788;2024-01-30T03:42:06;9.50;99.90
48604;DHT22;32708;51.212;6.788;2024-01-30T03:44:33;9.50;99.90
48604;DHT22;32708;51.212;6.788;2024-01-30T03:46:59;9.50;99.90
48604;DHT22;32708;51.212;6.788;2024-01-30T03:49:25;9.40;99.90
48604;DHT22;32708;51.212;6.788;2024-01-30T03:51:51;9.80;99.90
48604;DHT22;32708;51.212;6.788;2024-01-30T03:54:17;9.70;99.90
48604;DHT22;32708;51.212;6.788;2024-01-30T03:56:44;9.40;99.90
48604;DHT22;32708;51.212;6.788;2024-01-30T03:59:10;9.40;99.90
48604;DHT22;32708;51.212;6.788;2024-01-30T04:01:36;9.50;99.90
48604;DHT22;32708;51.212;6.788;2024-01-30T04:04:02;9.80;99.90
48604;DHT22;32708;51.212;6.788;2024-01-30T04:06:28;9.50;99.90
48604;DHT22;32708;51.212;6.788;2024-01-30T04:08:54;9.40;99.90
48604;DHT22;32708;51.212;6.788;2024-01-30T04:11:21;9.80;99.90
48604;DHT22;32708;51.212;6.788;2024-01-30T04:13:47;9.40;99.90
48604;DHT22;32708;51.212;6.788;2024-01-30T04:16:23;9.70;99.90
48604;DHT22;32708;51.212;6.788;2024-01-30T04:18:50;9.40;99.90
48604;DHT22;32708;51.212;6.788;2024-01-30T04:21:17;9.30;99.90
48604;DHT22;32708;51.212;6.788;2024-01-30T04:23:43;9.40;99.90
48604;DHT22;32708;51.212;6.788;2024-01-30T04:26:10;9.30;99.90
48604;DHT22;32708;51.212;6.788;2024-01-30T04:28:36;9.30;99.90
48604;DHT22;32708;51.212;6.788;2024-01-30T04:31:02;9.30;99.90
48604;DHT22;32708;51.212;6.788;2024-01-30T04:33:29;9.30;99.90
48604;DHT22;32708;51.212;6.788;2024-01-30T04:35:55;9.30;99.90
48604;DHT22;32708;51.212;6.788;2024-01-30T04:38:21;9.20;99.90
48604;DHT22;32708;51.212;6.788;2024-01-30T04:40:48;9.20;99.90
48604;DHT22;32708;51.212;6.788;2024-01-30T04:43:14;9.20;99.90
48604;DHT22;32708;51.212;6.788;2024-01-30T04:45:41;9.20;99.90
48604;DHT22;32708;51.212;6.788;2024-01-30T04:48:08;9.20;99.90
48604;DHT22;32708;51.212;6.788;2024-01-30T04:50:34;9.20;99.90
48604;DHT22;32708;51.212;6.788;2024-01-30T04:53:00;9.20;99.90
48604;DHT22;32708;51.212;6.788;2024-01-30T04:55:26;9.20;99.90
48604;DHT22;32708;51.212;6.788;2024-01-30T04:57:53;9.20;99.90
48604;DHT22;32708;51.212;6.788;2024-01-30T05:00:19;9.20;99.90
48604;DHT22;32708;51.212;6.788;2024-01-30T05:02:45;9.20;99.90
48604;DHT22;32708;51.212;6.788;2024-01-30T05:05:11;9.20;99.90
48604;DHT22;32708;51.212;6.788;2024-01-30T05:07:40;9.20;99.90
48604;DHT22;32708;51.212;6.788;2024-01-30T05:10:07;9.30;99.90
48604;DHT22;32708;51.212;6.788;2024-01-30T05:12:34;9.30;99.90
48604;DHT22;32708;51.212;6.788;2024-01-30T05:15:00;9.30;99.90
48604;DHT22;32708;51.212;6.788;2024-01-30T05:17:26;9.30;99.90
48604;DHT22;32708;51.212;6.788;2024-01-30T05:19:52;9.20;99.90
48604;DHT22;32708;51.212;6.788;2024-01-30T05:22:22;9.80;99.90
48604;DHT22;32708;51.212;6.788;2024-01-30T05:24:48;9.30;99.90
48604;DHT22;32708;51.212;6.788;2024-01-30T05:27:14;9.50;99.90
48604;DHT22;32708;51.212;6.788;2024-01-30T05:29:41;9.20;99.90
48604;DHT22;32708;51.212;6.788;2024-01-30T05:32:07;9.20;99.90
48604;DHT22;32708;51.212;6.788;2024-01-30T05:34:33;9.10;99.90
48604;DHT22;32708;51.212;6.788;2024-01-30T05:36:59;9.20;99.90
48604;DHT22;32708;51.212;6.788;2024-01-30T05:39:25;9.20;99.90
48604;DHT22;32708;51.212;6.788;2024-01-30T05:41:52;9.10;99.90
48604;DHT22;32708;51.212;6.788;2024-01-30T05:44:18;9.20;99.90
48604;DHT22;32708;51.212;6.788;2024-01-30T05:46:44;9.30;99.90
48604;DHT22;32708;51.212;6.788;2024-01-30T05:49:10;9.10;99.90
48604;DHT22;32708;51.212;6.788;2024-01-30T05:51:36;9.10;99.90
48604;DHT22;32708;51.212;6.788;2024-01-30T05:54:03;9.10;99.90
48604;DHT22;32708;51.212;6.788;2024-01-30T05:56:30;9.10;99.90
48604;DHT22;32708;51.212;6.788;2024-01-30T05:58:56;9.10;99.90
48604;DHT22;32708;51.212;6.788;2024-01-30T06:01:22;9.10;99.90
48604;DHT22;32708;51.212;6.788;2024-01-30T06:03:48;8.70;99.90
48604;DHT22;32708;51.212;6.788;2024-01-30T06:06:14;9.50;99.90
48604;DHT22;32708;51.212;6.788;2024-01-30T06:08:41;9.10;99.90
48604;DHT22;32708;51.212;6.788;2024-01-30T06:11:10;9.00;99.90
48604;DHT22;32708;51.212;6.788;2024-01-30T06:13:37;9.00;99.90
48604;DHT22;32708;51.212;6.788;2024-01-30T06:16:04;9.00;99.90
48604;DHT22;32708;51.212;6.788;2024-01-30T06:18:30;9.00;99.90
48604;DHT22;32708;51.212;6.788;2024-01-30T06:20:57;9.00;99.90
48604;DHT22;32708;51.212;6.788;2024-01-30T06:23:23;9.00;99.90
48604;DHT22;32708;51.212;6.788;2024-01-30T06:25:49;9.20;99.90
48604;DHT22;32708;51.212;6.788;2024-01-30T06:28:15;8.90;99.90
48604;DHT22;32708;51.212;6.788;2024-01-30T06:30:42;8.90;99.90
48604;DHT22;32708;51.212;6.788;2024-01-30T06:33:12;9.00;99.90
48604;DHT22;32708;51.212;6.788;2024-01-30T06:35:40;9.00;99.90
48604;DHT22;32708;51.212;6.788;2024-01-30T06:38:06;9.00;99.90
48604;DHT22;32708;51.212;6.788;2024-01-30T06:40:33;9.00;99.90
48604;DHT22;32708;51.212;6.788;2024-01-30T06:42:59;9.00;99.90
48604;DHT22;32708;51.212;6.788;2024-01-30T06:45:25;8.90;99.90
48604;DHT22;32708;51.212;6.788;2024-01-30T06:47:51;9.10;99.90
48604;DHT22;32708;51.212;6.788;2024-01-30T06:50:17;8.90;99.90
48604;DHT22;32708;51.212;6.788;2024-01-30T06:52:44;9.00;99.90
48604;DHT22;32708;51.212;6.788;2024-01-30T06:55:10;9.10;99.90
48604;DHT22;32708;51.212;6.788;2024-01-30T06:57:37;9.10;99.90
48604;DHT22;32708;51.212;6.788;2024-01-30T07:00:04;9.20;99.90
48604;DHT22;32708;51.212;6.788;2024-01-30T07:02:31;9.80;99.90
48604;DHT22;32708;51.212;6.788;2024-01-30T07:04:58;9.20;99.90
48604;DHT22;32708;51.212;6.788;2024-01-30T07:07:24;9.20;99.90
48604;DHT22;32708;51.212;6.788;2024-01-30T07:09:50;9.20;99.90
48604;DHT22;32708;51.212;6.788;2024-01-30T07:12:23;9.20;99.90
48604;DHT22;32708;51.212;6.788;2024-01-30T07:14:51;9.20;99.90
48604;DHT22;32708;51.212;6.788;2024-01-30T07:17:17;9.40;99.90
48604;DHT22;32708;51.212;6.788;2024-01-30T07:19:44;9.20;99.90
48604;DHT22;32708;51.212;6.788;2024-01-30T07:22:10;9.30;99.90
48604;DHT22;32708;51.212;6.788;2024-01-30T07:24:42;9.30;99.90
48604;DHT22;32708;51.212;6.788;2024-01-30T07:27:15;9.30;99.90
48604;DHT22;32708;51.212;6.788;2024-01-30T07:29:44;9.30;99.90
48604;DHT22;32708;51.212;6.788;2024-01-30T07:32:10;9.30;99.90
48604;DHT22;32708;51.212;6.788;2024-01-30T07:34:36;9.30;99.90
48604;DHT22;32708;51.212;6.788;2024-01-30T07:37:03;9.30;99.90
48604;DHT22;32708;51.212;6.788;2024-01-30T07:39:29;9.60;99.90
48604;DHT22;32708;51.212;6.788;2024-01-30T07:41:56;9.30;99.90
48604;DHT22;32708;51.212;6.788;2024-01-30T07:44:22;10.00;99.90
48604;DHT22;32708;51.212;6.788;2024-01-30T07:46:49;9.40;99.90
48604;DHT22;32708;51.212;6.788;2024-01-30T07:49:16;9.40;99.90
48604;DHT22;32708;51.212;6.788;2024-01-30T07:51:43;9.50;99.90
48604;DHT22;32708;51.212;6.788;2024-01-30T07:54:11;9.50;99.90
48604;DHT22;32708;51.212;6.788;2024-01-30T07:56:41;9.50;99.90
48604;DHT22;32708;51.212;6.788;2024-01-30T07:59:11;9.80;99.90
48604;DHT22;32708;51.212;6.788;2024-01-30T08:01:38;9.50;99.90
48604;DHT22;32708;51.212;6.788;2024-01-30T08:04:05;9.60;99.90
48604;DHT22;32708;51.212;6.788;2024-01-30T08:06:33;9.60;99.90
48604;DHT22;32708;51.212;6.788;2024-01-30T08:09:00;9.60;99.90
48604;DHT22;32708;51.212;6.788;2024-01-30T08:11:27;9.80;99.90
48604;DHT22;32708;51.212;6.788;2024-01-30T08:13:57;9.60;99.90
48604;DHT22;32708;51.212;6.788;2024-01-30T08:16:24;9.60;99.90
48604;DHT22;32708;51.212;6.788;2024-01-30T08:18:51;9.60;99.90
48604;DHT22;32708;51.212;6.788;2024-01-30T08:21:19;9.60;99.90
48604;DHT22;32708;51.212;6.788;2024-01-30T08:23:46;9.70;99.90
48604;DHT22;32708;51.212;6.788;2024-01-30T08:26:12;9.90;99.90
48604;DHT22;32708;51.212;6.788;2024-01-30T08:28:39;9.80;99.90
48604;DHT22;32708;51.212;6.788;2024-01-30T08:31:06;9.70;99.90
48604;DHT22;32708;51.212;6.788;2024-01-30T08:33:35;9.70;99.90
48604;DHT22;32708;51.212;6.788;2024-01-30T08:36:03;9.90;99.90
48604;DHT22;32708;51.212;6.788;2024-01-30T08:38:30;9.90;98.80
48604;DHT22;32708;51.212;6.788;2024-01-30T08:40:57;9.90;98.50
48604;DHT22;32708;51.212;6.788;2024-01-30T08:43:24;10.00;97.40
48604;DHT22;32708;51.212;6.788;2024-01-30T08:45:51;10.10;96.40
48604;DHT22;32708;51.212;6.788;2024-01-30T08:48:17;10.80;94.60
48604;DHT22;32708;51.212;6.788;2024-01-30T08:50:45;10.10;93.50
48604;DHT22;32708;51.212;6.788;2024-01-30T08:53:11;10.20;92.60
48604;DHT22;32708;51.212;6.788;2024-01-30T08:55:38;10.10;92.50
48604;DHT22;32708;51.212;6.788;2024-01-30T08:58:06;10.10;92.50
48604;DHT22;32708;51.212;6.788;2024-01-30T09:00:33;10.30;89.60
48604;DHT22;32708;51.212;6.788;2024-01-30T09:03:00;10.30;78.40
48604;DHT22;32708;51.212;6.788;2024-01-30T09:05:26;10.40;75.10
48604;DHT22;32708;51.212;6.788;2024-01-30T09:07:53;10.40;76.70
48604;DHT22;32708;51.212;6.788;2024-01-30T09:10:19;10.40;80.40
48604;DHT22;32708;51.212;6.788;2024-01-30T09:12:47;10.00;80.90
48604;DHT22;32708;51.212;6.788;2024-01-30T09:15:15;10.00;80.30
48604;DHT22;32708;51.212;6.788;2024-01-30T09:17:42;10.50;78.90
48604;DHT22;32708;51.212;6.788;2024-01-30T09:20:09;10.40;74.90
48604;DHT22;32708;51.212;6.788;2024-01-30T09:22:36;10.70;76.40
48604;DHT22;32708;51.212;6.788;2024-01-30T09:25:03;10.40;75.60
48604;DHT22;32708;51.212;6.788;2024-01-30T09:27:30;10.40;70.50
48604;DHT22;32708;51.212;6.788;2024-01-30T09:30:00;10.50;72.50
48604;DHT22;32708;51.212;6.788;2024-01-30T09:32:27;10.70;63.80
48604;DHT22;32708;51.212;6.788;2024-01-30T09:34:53;10.60;63.60
48604;DHT22;32708;51.212;6.788;2024-01-30T09:37:20;10.70;62.30
48604;DHT22;32708;51.212;6.788;2024-01-30T09:39:46;10.70;55.00
48604;DHT22;32708;51.212;6.788;2024-01-30T09:42:37;10.80;47.40
48604;DHT22;32708;51.212;6.788;2024-01-30T09:45:05;10.90;46.70
48604;DHT22;32708;51.212;6.788;2024-01-30T09:47:40;10.80;36.10
48604;DHT22;32708;51.212;6.788;2024-01-30T09:50:10;10.80;35.40
48604;DHT22;32708;51.212;6.788;2024-01-30T09:52:38;10.90;33.10
48604;DHT22;32708;51.212;6.788;2024-01-30T09:55:06;10.90;28.80
48604;DHT22;32708;51.212;6.788;2024-01-30T09:57:37;10.80;32.40
48604;DHT22;32708;51.212;6.788;2024-01-30T10:00:05;10.80;29.50
48604;DHT22;32708;51.212;6.788;2024-01-30T10:02:39;10.80;37.50
48604;DHT22;32708;51.212;6.788;2024-01-30T10:05:08;10.90;34.80
48604;DHT22;32708;51.212;6.788;2024-01-30T10:07:35;10.90;25.60
48604;DHT22;32708;51.212;6.788;2024-01-30T10:10:04;11.00;22.30
48604;DHT22;32708;51.212;6.788;2024-01-30T10:12:35;11.00;20.30
48604;DHT22;32708;51.212;6.788;2024-01-30T10:15:06;11.00;19.60
48604;DHT22;32708;51.212;6.788;2024-01-30T10:17:37;11.10;18.00
48604;DHT22;32708;51.212;6.788;2024-01-30T10:20:07;11.60;8.30
48604;DHT22;32708;51.212;6.788;2024-01-30T10:22:40;11.20;3.20
48604;DHT22;32708;51.212;6.788;2024-01-30T10:25:10;11.20;1.00
48604;DHT22;32708;51.212;6.788;2024-01-30T10:27:39;11.30;4.20
48604;DHT22;32708;51.212;6.788;2024-01-30T10:30:06;11.30;1.00
48604;DHT22;32708;51.212;6.788;2024-01-30T10:32:37;11.20;5.10
48604;DHT22;32708;51.212;6.788;2024-01-30T10:35:04;11.20;14.20
48604;DHT22;32708;51.212;6.788;2024-01-30T10:37:31;11.30;3.00
48604;DHT22;32708;51.212;6.788;2024-01-30T10:40:03;11.40;1.00
48604;DHT22;32708;51.212;6.788;2024-01-30T10:42:36;11.50;1.00
48604;DHT22;32708;51.212;6.788;2024-01-30T10:45:09;11.50;1.00
48604;DHT22;32708;51.212;6.788;2024-01-30T10:47:44;11.50;1.00
48604;DHT22;32708;51.212;6.788;2024-01-30T10:50:19;11.50;1.00
48604;DHT22;32708;51.212;6.788;2024-01-30T10:52:47;11.60;1.00
48604;DHT22;32708;51.212;6.788;2024-01-30T10:55:14;11.70;1.00
48604;DHT22;32708;51.212;6.788;2024-01-30T10:57:41;11.80;1.00
48604;DHT22;32708;51.212;6.788;2024-01-30T11:00:13;12.00;1.00
48604;DHT22;32708;51.212;6.788;2024-01-30T11:02:44;12.10;99.90
48604;DHT22;32708;51.212;6.788;2024-01-30T11:05:12;12.10;99.90
48604;DHT22;32708;51.212;6.788;2024-01-30T11:07:40;12.00;1.00
48604;DHT22;32708;51.212;6.788;2024-01-30T11:10:09;12.10;1.00
48604;DHT22;32708;51.212;6.788;2024-01-30T11:12:40;12.10;1.00
48604;DHT22;32708;51.212;6.788;2024-01-30T11:15:11;12.10;99.90
48604;DHT22;32708;51.212;6.788;2024-01-30T11:20:27;12.30;99.90
48604;DHT22;32708;51.212;6.788;2024-01-30T11:23:00;12.30;99.90
48604;DHT22;32708;51.212;6.788;2024-01-30T11:25:32;12.40;99.90
48604;DHT22;32708;51.212;6.788;2024-01-30T11:28:00;12.40;99.90
48604;DHT22;32708;51.212;6.788;2024-01-30T11:30:33;12.40;99.90
48604;DHT22;32708;51.212;6.788;2024-01-30T11:33:06;12.40;99.90
48604;DHT22;32708;51.212;6.788;2024-01-30T11:35:44;12.40;99.90
48604;DHT22;32708;51.212;6.788;2024-01-30T11:38:14;12.60;99.90
48604;DHT22;32708;51.212;6.788;2024-01-30T11:40:41;12.60;99.90
48604;DHT22;32708;51.212;6.788;2024-01-30T11:43:09;12.30;99.90
48604;DHT22;32708;51.212;6.788;2024-01-30T11:45:36;12.10;1.00
48604;DHT22;32708;51.212;6.788;2024-01-30T11:48:03;12.20;1.00
48604;DHT22;32708;51.212;6.788;2024-01-30T11:50:31;12.20;1.00
48604;DHT22;32708;51.212;6.788;2024-01-30T11:53:01;12.20;1.00
48604;DHT22;32708;51.212;6.788;2024-01-30T11:55:29;12.10;1.00
48604;DHT22;32708;51.212;6.788;2024-01-30T11:57:59;12.40;1.00
48604;DHT22;32708;51.212;6.788;2024-01-30T12:00:26;12.50;99.90
48604;DHT22;32708;51.212;6.788;2024-01-30T12:02:55;12.50;99.90
48604;DHT22;32708;51.212;6.788;2024-01-30T12:05:22;12.40;99.90
48604;DHT22;32708;51.212;6.788;2024-01-30T12:07:49;12.60;99.90
48604;DHT22;32708;51.212;6.788;2024-01-30T12:10:16;12.60;99.90
48604;DHT22;32708;51.212;6.788;2024-01-30T12:12:48;12.60;99.90
48604;DHT22;32708;51.212;6.788;2024-01-30T12:15:24;12.50;1.00
48604;DHT22;32708;51.212;6.788;2024-01-30T12:17:51;12.50;1.00
48604;DHT22;32708;51.212;6.788;2024-01-30T12:20:19;12.60;1.00
48604;DHT22;32708;51.212;6.788;2024-01-30T12:22:50;12.50;1.00
48604;DHT22;32708;51.212;6.788;2024-01-30T12:25:22;12.20;1.00
48604;DHT22;32708;51.212;6.788;2024-01-30T12:27:52;12.40;1.00
48604;DHT22;32708;51.212;6.788;2024-01-30T12:30:25;12.60;1.00
48604;DHT22;32708;51.212;6.788;2024-01-30T12:32:51;12.60;1.00
48604;DHT22;32708;51.212;6.788;2024-01-30T12:35:19;12.60;4.80
48604;DHT22;32708;51.212;6.788;2024-01-30T12:37:48;12.60;17.90
48604;DHT22;32708;51.212;6.788;2024-01-30T12:40:23;12.80;13.60
48604;DHT22;32708;51.212;6.788;2024-01-30T12:42:52;12.80;37.50
48604;DHT22;32708;51.212;6.788;2024-01-30T12:45:19;12.70;65.90
48604;DHT22;32708;51.212;6.788;2024-01-30T12:47:51;12.70;71.50
48604;DHT22;32708;51.212;6.788;2024-01-30T12:50:20;12.70;90.50
48604;DHT22;32708;51.212;6.788;2024-01-30T12:52:51;12.70;96.20
48604;DHT22;32708;51.212;6.788;2024-01-30T12:55:19;12.70;95.70
48604;DHT22;32708;51.212;6.788;2024-01-30T12:57:45;12.60;99.90
48604;DHT22;32708;51.212;6.788;2024-01-30T13:00:12;12.60;99.90
48604;DHT22;32708;51.212;6.788;2024-01-30T13:02:38;12.60;99.90
48604;DHT22;32708;51.212;6.788;2024-01-30T13:05:05;12.70;99.90
48604;DHT22;32708;51.212;6.788;2024-01-30T13:07:33;12.40;99.90
48604;DHT22;32708;51.212;6.788;2024-01-30T13:10:18;12.70;99.90
48604;DHT22;32708;51.212;6.788;2024-01-30T13:12:47;12.70;99.90
48604;DHT22;32708;51.212;6.788;2024-01-30T13:15:16;12.70;99.90
48604;DHT22;32708;51.212;6.788;2024-01-30T13:17:42;12.40;99.90
48604;DHT22;32708;51.212;6.788;2024-01-30T13:20:09;12.80;99.90
48604;DHT22;32708;51.212;6.788;2024-01-30T13:22:36;12.80;99.90
48604;DHT22;32708;51.212;6.788;2024-01-30T13:25:04;12.70;99.90
48604;DHT22;32708;51.212;6.788;2024-01-30T13:27:31;12.70;99.90
48604;DHT22;32708;51.212;6.788;2024-01-30T13:29:57;12.70;99.90
48604;DHT22;32708;51.212;6.788;2024-01-30T13:32:23;12.80;99.90
48604;DHT22;32708;51.212;6.788;2024-01-30T13:34:50;12.70;99.90
48604;DHT22;32708;51.212;6.788;2024-01-30T13:37:16;12.70;99.90
48604;DHT22;32708;51.212;6.788;2024-01-30T13:39:43;12.70;99.90
48604;DHT22;32708;51.212;6.788;2024-01-30T13:42:09;12.70;99.90
48604;DHT22;32708;51.212;6.788;2024-01-30T13:44:36;12.70;99.90
48604;DHT22;32708;51.212;6.788;2024-01-30T13:47:02;12.90;99.90
48604;DHT22;32708;51.212;6.788;2024-01-30T13:49:29;12.80;99.90
48604;DHT22;32708;51.212;6.788;2024-01-30T13:51:55;12.80;99.90
48604;DHT22;32708;51.212;6.788;2024-01-30T13:54:21;12.90;98.90
48604;DHT22;32708;51.212;6.788;2024-01-30T13:56:48;12.80;99.50
48604;DHT22;32708;51.212;6.788;2024-01-30T13:59:15;12.80;99.10
48604;DHT22;32708;51.212;6.788;2024-01-30T14:01:42;12.80;99.90
48604;DHT22;32708;51.212;6.788;2024-01-30T14:04:09;12.80;99.90
48604;DHT22;32708;51.212;6.788;2024-01-30T14:06:37;12.80;98.20
48604;DHT22;32708;51.212;6.788;2024-01-30T14:09:04;12.80;99.90
48604;DHT22;32708;51.212;6.788;2024-01-30T14:11:30;13.10;98.80
48604;DHT22;32708;51.212;6.788;2024-01-30T14:13:58;12.90;99.90
48604;DHT22;32708;51.212;6.788;2024-01-30T14:16:26;12.90;99.90
48604;DHT22;32708;51.212;6.788;2024-01-30T14:18:56;13.00;99.00
48604;DHT22;32708;51.212;6.788;2024-01-30T14:21:24;12.80;99.90
48604;DHT22;32708;51.212;6.788;2024-01-30T14:23:50;12.90;99.50
48604;DHT22;32708;51.212;6.788;2024-01-30T14:26:17;13.00;96.20
48604;DHT22;32708;51.212;6.788;2024-01-30T14:28:44;12.90;99.20
48604;DHT22;32708;51.212;6.788;2024-01-30T14:31:12;12.90;99.00
48604;DHT22;32708;51.212;6.788;2024-01-30T14:33:38;12.90;98.50
48604;DHT22;32708;51.212;6.788;2024-01-30T14:36:06;13.10;92.90
48604;DHT22;32708;51.212;6.788;2024-01-30T14:38:34;13.10;94.80
48604;DHT22;32708;51.212;6.788;2024-01-30T14:41:02;13.10;94.20
48604;DHT22;32708;51.212;6.788;2024-01-30T14:43:36;13.20;90.90
48604;DHT22;32708;51.212;6.788;2024-01-30T14:46:03;13.00;84.60
48604;DHT22;32708;51.212;6.788;2024-01-30T14:48:33;13.20;85.20
48604;DHT22;32708;51.212;6.788;2024-01-30T14:51:00;13.10;89.80
48604;DHT22;32708;51.212;6.788;2024-01-30T14:53:27;13.00;83.90
48604;DHT22;32708;51.212;6.788;2024-01-30T14:55:54;13.00;82.50
48604;DHT22;32708;51.212;6.788;2024-01-30T14:58:20;12.90;86.70
48604;DHT22;32708;51.212;6.788;2024-01-30T15:00:49;12.80;90.90
48604;DHT22;32708;51.212;6.788;2024-01-30T15:03:16;12.50;88.60
48604;DHT22;32708;51.212;6.788;2024-01-30T15:05:47;12.80;87.40
48604;DHT22;32708;51.212;6.788;2024-01-30T15:08:14;11.60;90.60
48604;DHT22;32708;51.212;6.788;2024-01-30T15:10:41;12.60;91.70
48604;DHT22;32708;51.212;6.788;2024-01-30T15:13:08;12.50;93.70
48604;DHT22;32708;51.212;6.788;2024-01-30T15:15:35;12.60;92.70
48604;DHT22;32708;51.212;6.788;2024-01-30T15:18:03;12.30;84.40
48604;DHT22;32708;51.212;6.788;2024-01-30T15:20:30;12.40;47.10
48604;DHT22;32708;51.212;6.788;2024-01-30T15:23:00;12.40;3.50
48604;DHT22;32708;51.212;6.788;2024-01-30T15:25:26;12.40;1.00
48604;DHT22;32708;51.212;6.788;2024-01-30T15:27:56;12.30;1.00
48604;DHT22;32708;51.212;6.788;2024-01-30T15:30:23;12.30;1.00
48604;DHT22;32708;51.212;6.788;2024-01-30T15:32:50;12.30;1.00
48604;DHT22;32708;51.212;6.788;2024-01-30T15:35:17;12.30;1.00
48604;DHT22;32708;51.212;6.788;2024-01-30T15:37:43;12.20;1.00
48604;DHT22;32708;51.212;6.788;2024-01-30T15:40:11;12.20;1.00
48604;DHT22;32708;51.212;6.788;2024-01-30T15:42:38;12.30;1.00
48604;DHT22;32708;51.212;6.788;2024-01-30T15:45:07;12.20;1.00